sensor_id;sensor_type;location;lat;lon;timestamp;pressure;altitude;pressure_sealevel;temperature;humidity
47530;BME280;33272;51.922;7.730;2023-12-07T00:01:38;143239.41;;;2.96;100.00
47530;BME280;33272;51.922;7.730;2023-12-07T00:04:05;143229.34;;;2.92;100.00
47530;BME280;33272;51.922;7.730;2023-12-07T00:06:34;143215.47;;;2.86;100.00
47530;BME280;33272;51.922;7.730;2023-12-07T00:09:00;143212.97;;;2.85;100.00
47530;BME280;33272;51.922;7.730;2023-12-07T00:11:28;143206.66;;;2.83;100.00
47530;BME280;33272;51.922;7.730;2023-12-07T00:13:55;143195.38;;;2.78;100.00
47530;BME280;33272;51.922;7.730;2023-12-07T00:16:22;143190.31;;;2.76;100.00
47530;BME280;33272;51.922;7.730;2023-12-07T00:18:49;143180.25;;;2.72;100.00
47530;BME280;33272;51.922;7.730;2023-12-07T00:21:16;143176.47;;;2.70;100.00
47530;BME280;33272;51.922;7.730;2023-12-07T00:23:44;143172.72;;;2.69;100.00
47530;BME280;33272;51.922;7.730;2023-12-07T00:26:11;143167.66;;;2.67;100.00
47530;BME280;33272;51.922;7.730;2023-12-07T00:28:38;143161.34;;;2.64;100.00
47530;BME280;33272;51.922;7.730;2023-12-07T00:31:05;143170.16;;;2.68;100.00
47530;BME280;33272;51.922;7.730;2023-12-07T00:33:33;143166.41;;;2.66;100.00
47530;BME280;33272;51.922;7.730;2023-12-07T00:36:00;143156.34;;;2.62;100.00
47530;BME280;33272;51.922;7.730;2023-12-07T00:38:27;143146.25;;;2.58;100.00
47530;BME280;33272;51.922;7.730;2023-12-07T00:40:56;143133.69;;;2.53;100.00
47530;BME280;33272;51.922;7.730;2023-12-07T00:43:23;143124.88;;;2.49;100.00
47530;BME280;33272;51.922;7.730;2023-12-07T00:45:50;143118.59;;;2.47;100.00
47530;BME280;33272;51.922;7.730;2023-12-07T00:48:16;143113.53;;;2.45;100.00
47530;BME280;33272;51.922;7.730;2023-12-07T00:50:44;143107.22;;;2.42;100.00
47530;BME280;33272;51.922;7.730;2023-12-07T00:53:10;143098.44;;;2.39;100.00
47530;BME280;33272;51.922;7.730;2023-12-07T00:55:37;143092.13;;;2.36;100.00
47530;BME280;33272;51.922;7.730;2023-12-07T00:58:07;143082.06;;;2.32;100.00
47530;BME280;33272;51.922;7.730;2023-12-07T01:00:34;143077.03;;;2.30;100.00
47530;BME280;33272;51.922;7.730;2023-12-07T01:03:01;143066.97;;;2.26;100.00
47530;BME280;33272;51.922;7.730;2023-12-07T01:05:28;143066.97;;;2.26;100.00
47530;BME280;33272;51.922;7.730;2023-12-07T01:07:54;143066.97;;;2.26;100.00
47530;BME280;33272;51.922;7.730;2023-12-07T01:10:22;143069.47;;;2.27;100.00
47530;BME280;33272;51.922;7.730;2023-12-07T01:12:49;143073.28;;;2.28;100.00
47530;BME280;33272;51.922;7.730;2023-12-07T01:15:17;143077.03;;;2.30;100.00
47530;BME280;33272;51.922;7.730;2023-12-07T01:17:44;143084.56;;;2.33;100.00
47530;BME280;33272;51.922;7.730;2023-12-07T01:20:11;143092.13;;;2.36;100.00
47530;BME280;33272;51.922;7.730;2023-12-07T01:22:39;143105.97;;;2.42;100.00
47530;BME280;33272;51.922;7.730;2023-12-07T01:25:07;143114.78;;;2.45;100.00
47530;BME280;33272;51.922;7.730;2023-12-07T01:27:35;143124.88;;;2.49;100.00
47530;BME280;33272;51.922;7.730;2023-12-07T01:30:03;143129.88;;;2.51;100.00
47530;BME280;33272;51.922;7.730;2023-12-07T01:32:31;143143.75;;;2.57;100.00
47530;BME280;33272;51.922;7.730;2023-12-07T01:34:58;143152.53;;;2.61;100.00
47530;BME280;33272;51.922;7.730;2023-12-07T01:37:25;143162.59;;;2.65;100.00
47530;BME280;33272;51.922;7.730;2023-12-07T01:39:53;143175.22;;;2.70;100.00
47530;BME280;33272;51.922;7.730;2023-12-07T01:42:20;143184.00;;;2.73;100.00
47530;BME280;33272;51.922;7.730;2023-12-07T01:44:47;143190.31;;;2.76;100.00
47530;BME280;33272;51.922;7.730;2023-12-07T01:47:14;143196.63;;;2.78;100.00
47530;BME280;33272;51.922;7.730;2023-12-07T01:49:43;143196.63;;;2.78;100.00
47530;BME280;33272;51.922;7.730;2023-12-07T01:52:11;143200.38;;;2.80;100.00
47530;BME280;33272;51.922;7.730;2023-12-07T01:54:38;143211.72;;;2.85;100.00
47530;BME280;33272;51.922;7.730;2023-12-07T01:57:06;143210.47;;;2.84;100.00
47530;BME280;33272;51.922;7.730;2023-12-07T01:59:33;143215.47;;;2.86;100.00
47530;BME280;33272;51.922;7.730;2023-12-07T02:02:01;143214.22;;;2.86;100.00
47530;BME280;33272;51.922;7.730;2023-12-07T02:04:28;143221.78;;;2.89;100.00
47530;BME280;33272;51.922;7.730;2023-12-07T02:06:57;143230.59;;;2.92;100.00
47530;BME280;33272;51.922;7.730;2023-12-07T02:09:26;143239.41;;;2.96;100.00
47530;BME280;33272;51.922;7.730;2023-12-07T02:11:53;143243.19;;;2.97;100.00
47530;BME280;33272;51.922;7.730;2023-12-07T02:14:20;143243.19;;;2.97;100.00
47530;BME280;33272;51.922;7.730;2023-12-07T02:16:51;143246.94;;;2.99;100.00
47530;BME280;33272;51.922;7.730;2023-12-07T02:19:47;143240.69;;;2.96;100.00
47530;BME280;33272;51.922;7.730;2023-12-07T02:22:24;143246.94;;;2.99;100.00
47530;BME280;33272;51.922;7.730;2023-12-07T02:25:07;143249.50;;;3.00;100.00
47530;BME280;33272;51.922;7.730;2023-12-07T02:27:40;143258.31;;;3.04;100.00
47530;BME280;33272;51.922;7.730;2023-12-07T02:30:09;143249.50;;;3.00;100.00
47530;BME280;33272;51.922;7.730;2023-12-07T02:32:37;143252.00;;;3.01;100.00
47530;BME280;33272;51.922;7.730;2023-12-07T02:35:05;143258.31;;;3.04;100.00
47530;BME280;33272;51.922;7.730;2023-12-07T02:37:36;143255.75;;;3.02;100.00
47530;BME280;33272;51.922;7.730;2023-12-07T02:40:06;143262.06;;;3.05;100.00
47530;BME280;33272;51.922;7.730;2023-12-07T02:42:38;143269.63;;;3.08;100.00
47530;BME280;33272;51.922;7.730;2023-12-07T02:45:07;143274.66;;;3.10;100.00
47530;BME280;33272;51.922;7.730;2023-12-07T02:47:35;143279.72;;;3.12;100.00
47530;BME280;33272;51.922;7.730;2023-12-07T02:50:03;143280.97;;;3.13;100.00
47530;BME280;33272;51.922;7.730;2023-12-07T02:52:31;143282.22;;;3.13;100.00
47530;BME280;33272;51.922;7.730;2023-12-07T02:54:58;143284.72;;;3.14;100.00
47530;BME280;33272;51.922;7.730;2023-12-07T02:57:25;143284.72;;;3.14;100.00
47530;BME280;33272;51.922;7.730;2023-12-07T02:59:53;143283.47;;;3.14;100.00
47530;BME280;33272;51.922;7.730;2023-12-07T03:02:21;143277.16;;;3.11;100.00
47530;BME280;33272;51.922;7.730;2023-12-07T03:04:48;143272.16;;;3.09;100.00
47530;BME280;33272;51.922;7.730;2023-12-07T03:07:14;143270.88;;;3.09;100.00
47530;BME280;33272;51.922;7.730;2023-12-07T03:09:41;143257.06;;;3.03;100.00
47530;BME280;33272;51.922;7.730;2023-12-07T03:12:08;143258.31;;;3.04;100.00
47530;BME280;33272;51.922;7.730;2023-12-07T03:14:35;143257.06;;;3.03;100.00
47530;BME280;33272;51.922;7.730;2023-12-07T03:17:04;143255.75;;;3.02;100.00
47530;BME280;33272;51.922;7.730;2023-12-07T03:19:31;143255.75;;;3.02;100.00
47530;BME280;33272;51.922;7.730;2023-12-07T03:21:58;143255.75;;;3.02;100.00
47530;BME280;33272;51.922;7.730;2023-12-07T03:24:25;143255.75;;;3.02;100.00
47530;BME280;33272;51.922;7.730;2023-12-07T03:26:52;143250.75;;;3.00;100.00
47530;BME280;33272;51.922;7.730;2023-12-07T03:29:19;143243.19;;;2.97;100.00
47530;BME280;33272;51.922;7.730;2023-12-07T03:31:46;143245.69;;;2.98;100.00
47530;BME280;33272;51.922;7.730;2023-12-07T03:34:14;143241.94;;;2.97;100.00
47530;BME280;33272;51.922;7.730;2023-12-07T03:36:42;143243.19;;;2.97;100.00
47530;BME280;33272;51.922;7.730;2023-12-07T03:39:09;143243.19;;;2.97;100.00
47530;BME280;33272;51.922;7.730;2023-12-07T03:41:36;143244.44;;;2.98;100.00
47530;BME280;33272;51.922;7.730;2023-12-07T03:44:03;143245.69;;;2.98;100.00
47530;BME280;33272;51.922;7.730;2023-12-07T03:46:33;143243.19;;;2.97;100.00
47530;BME280;33272;51.922;7.730;2023-12-07T03:49:00;143228.09;;;2.91;100.00
47530;BME280;33272;51.922;7.730;2023-12-07T03:51:30;143240.69;;;2.96;100.00
47530;BME280;33272;51.922;7.730;2023-12-07T03:53:57;143235.63;;;2.94;100.00
47530;BME280;33272;51.922;7.730;2023-12-07T03:56:24;143225.59;;;2.90;100.00
47530;BME280;33272;51.922;7.730;2023-12-07T03:58:52;143223.03;;;2.89;100.00
47530;BME280;33272;51.922;7.730;2023-12-07T04:01:22;143220.53;;;2.88;100.00
47530;BME280;33272;51.922;7.730;2023-12-07T04:03:50;143211.72;;;2.85;100.00
47530;BME280;33272;51.922;7.730;2023-12-07T04:06:17;143214.22;;;2.86;100.00
47530;BME280;33272;51.922;7.730;2023-12-07T04:08:47;143206.66;;;2.83;100.00
47530;BME280;33272;51.922;7.730;2023-12-07T04:11:15;143221.78;;;2.89;100.00
47530;BME280;33272;51.922;7.730;2023-12-07T04:13:42;143225.59;;;2.90;100.00
47530;BME280;33272;51.922;7.730;2023-12-07T04:16:10;143234.38;;;2.94;100.00
47530;BME280;33272;51.922;7.730;2023-12-07T04:18:37;143235.63;;;2.94;100.00
47530;BME280;33272;51.922;7.730;2023-12-07T04:21:05;143210.47;;;2.84;100.00
47530;BME280;33272;51.922;7.730;2023-12-07T04:23:32;143209.19;;;2.84;100.00
47530;BME280;33272;51.922;7.730;2023-12-07T04:26:00;143196.63;;;2.78;100.00
47530;BME280;33272;51.922;7.730;2023-12-07T04:28:27;143187.81;;;2.75;100.00
47530;BME280;33272;51.922;7.730;2023-12-07T04:33:40;143181.50;;;2.72;100.00
47530;BME280;33272;51.922;7.730;2023-12-07T04:36:07;143168.91;;;2.67;100.00
47530;BME280;33272;51.922;7.730;2023-12-07T04:38:34;143162.59;;;2.65;100.00
47530;BME280;33272;51.922;7.730;2023-12-07T04:41:03;143158.84;;;2.63;100.00
47530;BME280;33272;51.922;7.730;2023-12-07T04:43:30;143137.44;;;2.54;100.00
47530;BME280;33272;51.922;7.730;2023-12-07T04:45:57;143132.44;;;2.52;100.00
47530;BME280;33272;51.922;7.730;2023-12-07T04:48:24;143136.19;;;2.54;100.00
47530;BME280;33272;51.922;7.730;2023-12-07T04:50:51;143118.59;;;2.47;100.00
47530;BME280;33272;51.922;7.730;2023-12-07T04:53:18;143087.13;;;2.34;100.00
47530;BME280;33272;51.922;7.730;2023-12-07T04:55:45;143099.69;;;2.39;100.00
47530;BME280;33272;51.922;7.730;2023-12-07T04:58:17;143111.03;;;2.44;100.00
47530;BME280;33272;51.922;7.730;2023-12-07T05:00:44;143116.03;;;2.46;100.00
47530;BME280;33272;51.922;7.730;2023-12-07T05:03:11;143119.84;;;2.47;100.00
47530;BME280;33272;51.922;7.730;2023-12-07T05:05:38;143129.88;;;2.51;100.00
47530;BME280;33272;51.922;7.730;2023-12-07T05:08:05;143122.34;;;2.48;100.00
47530;BME280;33272;51.922;7.730;2023-12-07T05:10:32;143131.13;;;2.52;100.00
47530;BME280;33272;51.922;7.730;2023-12-07T05:12:59;143117.34;;;2.46;100.00
47530;BME280;33272;51.922;7.730;2023-12-07T05:15:27;143124.88;;;2.49;100.00
47530;BME280;33272;51.922;7.730;2023-12-07T05:17:55;143116.03;;;2.46;100.00
47530;BME280;33272;51.922;7.730;2023-12-07T05:20:22;143123.59;;;2.49;100.00
47530;BME280;33272;51.922;7.730;2023-12-07T05:22:50;143124.88;;;2.49;100.00
47530;BME280;33272;51.922;7.730;2023-12-07T05:25:17;143109.78;;;2.43;100.00
47530;BME280;33272;51.922;7.730;2023-12-07T05:27:44;143116.03;;;2.46;100.00
47530;BME280;33272;51.922;7.730;2023-12-07T05:30:12;143107.22;;;2.42;100.00
47530;BME280;33272;51.922;7.730;2023-12-07T05:32:41;143109.78;;;2.43;100.00
47530;BME280;33272;51.922;7.730;2023-12-07T05:35:08;143094.69;;;2.37;100.00
47530;BME280;33272;51.922;7.730;2023-12-07T05:37:35;143104.72;;;2.41;100.00
47530;BME280;33272;51.922;7.730;2023-12-07T05:40:03;143088.38;;;2.35;100.00
47530;BME280;33272;51.922;7.730;2023-12-07T05:42:31;143080.81;;;2.31;100.00
47530;BME280;33272;51.922;7.730;2023-12-07T05:44:58;143088.38;;;2.35;100.00
47530;BME280;33272;51.922;7.730;2023-12-07T05:47:26;143109.78;;;2.43;100.00
47530;BME280;33272;51.922;7.730;2023-12-07T05:49:54;143093.44;;;2.37;100.00
47530;BME280;33272;51.922;7.730;2023-12-07T05:52:23;143095.94;;;2.38;100.00
47530;BME280;33272;51.922;7.730;2023-12-07T05:54:50;143079.56;;;2.31;100.00
47530;BME280;33272;51.922;7.730;2023-12-07T05:57:17;143082.06;;;2.32;100.00
47530;BME280;33272;51.922;7.730;2023-12-07T05:59:44;143080.81;;;2.31;100.00
47530;BME280;33272;51.922;7.730;2023-12-07T06:02:11;143080.81;;;2.31;100.00
47530;BME280;33272;51.922;7.730;2023-12-07T06:04:38;143077.03;;;2.30;100.00
47530;BME280;33272;51.922;7.730;2023-12-07T06:07:06;143051.88;;;2.20;100.00
47530;BME280;33272;51.922;7.730;2023-12-07T06:09:33;143054.44;;;2.21;100.00
47530;BME280;33272;51.922;7.730;2023-12-07T06:12:00;143040.56;;;2.15;100.00
47530;BME280;33272;51.922;7.730;2023-12-07T06:14:27;143021.69;;;2.07;100.00
47530;BME280;33272;51.922;7.730;2023-12-07T06:16:54;143031.78;;;2.12;100.00
47530;BME280;33272;51.922;7.730;2023-12-07T06:19:21;143025.47;;;2.09;100.00
47530;BME280;33272;51.922;7.730;2023-12-07T06:21:48;143053.13;;;2.20;100.00
47530;BME280;33272;51.922;7.730;2023-12-07T06:24:17;143034.28;;;2.13;100.00
47530;BME280;33272;51.922;7.730;2023-12-07T06:26:44;143025.47;;;2.09;100.00
47530;BME280;33272;51.922;7.730;2023-12-07T06:29:11;143035.53;;;2.13;100.00
47530;BME280;33272;51.922;7.730;2023-12-07T06:31:43;143033.03;;;2.12;100.00
47530;BME280;33272;51.922;7.730;2023-12-07T06:34:10;143010.38;;;2.03;100.00
47530;BME280;33272;51.922;7.730;2023-12-07T06:36:37;143006.59;;;2.01;100.00
47530;BME280;33272;51.922;7.730;2023-12-07T06:39:04;142988.97;;;1.94;100.00
47530;BME280;33272;51.922;7.730;2023-12-07T06:41:32;142995.28;;;1.97;100.00
47530;BME280;33272;51.922;7.730;2023-12-07T06:44:00;142999.03;;;1.98;100.00
47530;BME280;33272;51.922;7.730;2023-12-07T06:46:26;143012.88;;;2.04;100.00
47530;BME280;33272;51.922;7.730;2023-12-07T06:48:54;143004.06;;;2.00;100.00
47530;BME280;33272;51.922;7.730;2023-12-07T06:51:21;143026.72;;;2.09;100.00
47530;BME280;33272;51.922;7.730;2023-12-07T06:53:48;143020.44;;;2.07;100.00
47530;BME280;33272;51.922;7.730;2023-12-07T06:56:15;143029.22;;;2.11;100.00
47530;BME280;33272;51.922;7.730;2023-12-07T06:58:43;143035.53;;;2.13;100.00
47530;BME280;33272;51.922;7.730;2023-12-07T07:01:10;143038.03;;;2.14;100.00
47530;BME280;33272;51.922;7.730;2023-12-07T07:03:38;143056.94;;;2.22;100.00
47530;BME280;33272;51.922;7.730;2023-12-07T07:06:05;143070.78;;;2.27;100.00
47530;BME280;33272;51.922;7.730;2023-12-07T07:08:32;143066.97;;;2.26;100.00
47530;BME280;33272;51.922;7.730;2023-12-07T07:10:59;143087.13;;;2.34;100.00
47530;BME280;33272;51.922;7.730;2023-12-07T07:13:26;143094.69;;;2.37;100.00
47530;BME280;33272;51.922;7.730;2023-12-07T07:15:55;143099.69;;;2.39;100.00
47530;BME280;33272;51.922;7.730;2023-12-07T07:18:22;143112.28;;;2.44;100.00
47530;BME280;33272;51.922;7.730;2023-12-07T07:20:50;143107.22;;;2.42;100.00
47530;BME280;33272;51.922;7.730;2023-12-07T07:23:17;143108.53;;;2.43;100.00
47530;BME280;33272;51.922;7.730;2023-12-07T07:25:44;143097.19;;;2.38;100.00
47530;BME280;33272;51.922;7.730;2023-12-07T07:28:11;143113.53;;;2.45;100.00
47530;BME280;33272;51.922;7.730;2023-12-07T07:30:38;143136.19;;;2.54;100.00
47530;BME280;33272;51.922;7.730;2023-12-07T07:33:06;143134.94;;;2.53;100.00
47530;BME280;33272;51.922;7.730;2023-12-07T07:35:33;143155.09;;;2.62;100.00
47530;BME280;33272;51.922;7.730;2023-12-07T07:38:00;143157.59;;;2.63;100.00
47530;BME280;33272;51.922;7.730;2023-12-07T07:40:27;143170.16;;;2.68;100.00
47530;BME280;33272;51.922;7.730;2023-12-07T07:42:54;143171.44;;;2.68;100.00
47530;BME280;33272;51.922;7.730;2023-12-07T07:45:21;143150.03;;;2.60;100.00
47530;BME280;33272;51.922;7.730;2023-12-07T07:47:48;143151.28;;;2.60;100.00
47530;BME280;33272;51.922;7.730;2023-12-07T07:50:16;143137.44;;;2.54;100.00
47530;BME280;33272;51.922;7.730;2023-12-07T07:52:43;143143.75;;;2.57;100.00
47530;BME280;33272;51.922;7.730;2023-12-07T07:55:10;143152.53;;;2.61;100.00
47530;BME280;33272;51.922;7.730;2023-12-07T07:57:38;143153.78;;;2.61;100.00
47530;BME280;33272;51.922;7.730;2023-12-07T08:00:06;143171.44;;;2.68;100.00
47530;BME280;33272;51.922;7.730;2023-12-07T08:02:34;143189.06;;;2.75;100.00
47530;BME280;33272;51.922;7.730;2023-12-07T08:05:02;143186.56;;;2.74;100.00
47530;BME280;33272;51.922;7.730;2023-12-07T08:07:30;143205.41;;;2.82;100.00
47530;BME280;33272;51.922;7.730;2023-12-07T08:09:57;143215.47;;;2.86;100.00
47530;BME280;33272;51.922;7.730;2023-12-07T08:12:24;143223.03;;;2.89;100.00
47530;BME280;33272;51.922;7.730;2023-12-07T08:14:51;143212.97;;;2.85;100.00
47530;BME280;33272;51.922;7.730;2023-12-07T08:17:18;143240.69;;;2.96;100.00
47530;BME280;33272;51.922;7.730;2023-12-07T08:19:46;143245.69;;;2.98;100.00
47530;BME280;33272;51.922;7.730;2023-12-07T08:22:14;143259.56;;;3.04;100.00
47530;BME280;33272;51.922;7.730;2023-12-07T08:24:42;143277.16;;;3.11;100.00
47530;BME280;33272;51.922;7.730;2023-12-07T08:27:09;143293.53;;;3.18;100.00
47530;BME280;33272;51.922;7.730;2023-12-07T08:29:36;143273.41;;;3.10;100.00
47530;BME280;33272;51.922;7.730;2023-12-07T08:32:04;143288.53;;;3.16;100.00
47530;BME280;33272;51.922;7.730;2023-12-07T08:34:31;143299.84;;;3.20;100.00
47530;BME280;33272;51.922;7.730;2023-12-07T08:36:58;143307.41;;;3.23;100.00
47530;BME280;33272;51.922;7.730;2023-12-07T08:39:25;143313.72;;;3.26;100.00
47530;BME280;33272;51.922;7.730;2023-12-07T08:41:54;143326.31;;;3.31;100.00
47530;BME280;33272;51.922;7.730;2023-12-07T08:44:21;143328.81;;;3.32;100.00
47530;BME280;33272;51.922;7.730;2023-12-07T08:46:48;143331.31;;;3.33;100.00
47530;BME280;33272;51.922;7.730;2023-12-07T08:49:15;143325.03;;;3.31;100.00
47530;BME280;33272;51.922;7.730;2023-12-07T08:51:42;143348.94;;;3.40;100.00
47530;BME280;33272;51.922;7.730;2023-12-07T08:54:09;143342.69;;;3.38;100.00
47530;BME280;33272;51.922;7.730;2023-12-07T08:56:36;143356.50;;;3.43;100.00
47530;BME280;33272;51.922;7.730;2023-12-07T08:59:04;143376.69;;;3.52;100.00
47530;BME280;33272;51.922;7.730;2023-12-07T09:01:31;143380.47;;;3.53;100.00
47530;BME280;33272;51.922;7.730;2023-12-07T09:03:59;143382.97;;;3.54;100.00
47530;BME280;33272;51.922;7.730;2023-12-07T09:06:26;143382.97;;;3.54;100.00
47530;BME280;33272;51.922;7.730;2023-12-07T09:08:53;143399.34;;;3.61;100.00
47530;BME280;33272;51.922;7.730;2023-12-07T09:11:20;143416.97;;;3.68;100.00
47530;BME280;33272;51.922;7.730;2023-12-07T09:13:48;143433.34;;;3.75;100.00
47530;BME280;33272;51.922;7.730;2023-12-07T09:16:16;143445.97;;;3.80;100.00
47530;BME280;33272;51.922;7.730;2023-12-07T09:18:43;143459.84;;;3.85;100.00
47530;BME280;33272;51.922;7.730;2023-12-07T09:21:11;143473.72;;;3.91;100.00
47530;BME280;33272;51.922;7.730;2023-12-07T09:23:38;143487.53;;;3.97;100.00
47530;BME280;33272;51.922;7.730;2023-12-07T09:26:05;143500.16;;;4.02;100.00
47530;BME280;33272;51.922;7.730;2023-12-07T09:28:34;143522.84;;;4.11;100.00
47530;BME280;33272;51.922;7.730;2023-12-07T09:31:01;143545.53;;;4.20;100.00
47530;BME280;33272;51.922;7.730;2023-12-07T09:33:29;143560.66;;;4.26;100.00
47530;BME280;33272;51.922;7.730;2023-12-07T09:35:56;143574.50;;;4.32;100.00
47530;BME280;33272;51.922;7.730;2023-12-07T09:38:23;143593.44;;;4.39;100.00
47530;BME280;33272;51.922;7.730;2023-12-07T09:40:53;143602.25;;;4.43;100.00
47530;BME280;33272;51.922;7.730;2023-12-07T09:43:21;143612.31;;;4.47;100.00
47530;BME280;33272;51.922;7.730;2023-12-07T09:45:48;143601.00;;;4.43;100.00
47530;BME280;33272;51.922;7.730;2023-12-07T09:48:18;143618.63;;;4.50;100.00
47530;BME280;33272;51.922;7.730;2023-12-07T09:50:47;143627.44;;;4.53;100.00
47530;BME280;33272;51.922;7.730;2023-12-07T09:53:14;143642.56;;;4.59;100.00
47530;BME280;33272;51.922;7.730;2023-12-07T09:55:41;143660.25;;;4.67;100.00
47530;BME280;33272;51.922;7.730;2023-12-07T09:58:08;143682.91;;;4.76;100.00
47530;BME280;33272;51.922;7.730;2023-12-07T10:00:35;143710.69;;;4.87;100.00
47530;BME280;33272;51.922;7.730;2023-12-07T10:03:02;143737.16;;;4.98;100.00
47530;BME280;33272;51.922;7.730;2023-12-07T10:05:29;143747.28;;;5.02;100.00
47530;BME280;33272;51.922;7.730;2023-12-07T10:07:58;143753.59;;;5.04;100.00
47530;BME280;33272;51.922;7.730;2023-12-07T10:10:25;143762.41;;;5.08;100.00
47530;BME280;33272;51.922;7.730;2023-12-07T10:12:54;143785.13;;;5.17;100.00
47530;BME280;33272;51.922;7.730;2023-12-07T10:15:23;143798.97;;;5.23;100.00
47530;BME280;33272;51.922;7.730;2023-12-07T10:17:53;143824.22;;;5.33;100.00
47530;BME280;33272;51.922;7.730;2023-12-07T10:20:22;143841.88;;;5.40;100.00
47530;BME280;33272;51.922;7.730;2023-12-07T10:23:02;143843.13;;;5.41;100.00
47530;BME280;33272;51.922;7.730;2023-12-07T10:25:30;143839.38;;;5.39;100.00
47530;BME280;33272;51.922;7.730;2023-12-07T10:27:57;143840.63;;;5.40;100.00
47530;BME280;33272;51.922;7.730;2023-12-07T10:30:24;143848.19;;;5.43;100.00
47530;BME280;33272;51.922;7.730;2023-12-07T10:32:53;143860.78;;;5.48;100.00
47530;BME280;33272;51.922;7.730;2023-12-07T10:35:20;143863.34;;;5.49;100.00
47530;BME280;33272;51.922;7.730;2023-12-07T10:37:47;143859.53;;;5.47;100.00
47530;BME280;33272;51.922;7.730;2023-12-07T10:40:16;143850.72;;;5.44;100.00
47530;BME280;33272;51.922;7.730;2023-12-07T10:42:48;143841.88;;;5.40;100.00
47530;BME280;33272;51.922;7.730;2023-12-07T10:45:15;143835.56;;;5.38;100.00
47530;BME280;33272;51.922;7.730;2023-12-07T10:47:44;143834.31;;;5.37;100.00
47530;BME280;33272;51.922;7.730;2023-12-07T10:50:14;143825.50;;;5.33;100.00
47530;BME280;33272;51.922;7.730;2023-12-07T10:52:48;143840.63;;;5.40;100.00
47530;BME280;33272;51.922;7.730;2023-12-07T10:55:20;143849.47;;;5.43;100.00
47530;BME280;33272;51.922;7.730;2023-12-07T10:57:49;143854.47;;;5.45;100.00
47530;BME280;33272;51.922;7.730;2023-12-07T11:00:19;143851.97;;;5.44;100.00
47530;BME280;33272;51.922;7.730;2023-12-07T11:02:50;143857.03;;;5.46;100.00
47530;BME280;33272;51.922;7.730;2023-12-07T11:05:19;143858.28;;;5.47;100.00
47530;BME280;33272;51.922;7.730;2023-12-07T11:07:52;143858.28;;;5.47;100.00
47530;BME280;33272;51.922;7.730;2023-12-07T11:10:30;143863.34;;;5.49;100.00
47530;BME280;33272;51.922;7.730;2023-12-07T11:13:08;143874.69;;;5.53;100.00
47530;BME280;33272;51.922;7.730;2023-12-07T11:15:38;143889.81;;;5.60;100.00
47530;BME280;33272;51.922;7.730;2023-12-07T11:18:06;143901.16;;;5.64;100.00
47530;BME280;33272;51.922;7.730;2023-12-07T11:20:40;143898.66;;;5.63;100.00
47530;BME280;33272;51.922;7.730;2023-12-07T11:23:08;143879.75;;;5.55;100.00
47530;BME280;33272;51.922;7.730;2023-12-07T11:25:37;143855.78;;;5.46;100.00
47530;BME280;33272;51.922;7.730;2023-12-07T11:28:06;143828.00;;;5.34;100.00
47530;BME280;33272;51.922;7.730;2023-12-07T11:30:36;143806.53;;;5.26;100.00
47530;BME280;33272;51.922;7.730;2023-12-07T11:33:04;143788.88;;;5.19;100.00
47530;BME280;33272;51.922;7.730;2023-12-07T11:35:31;143782.56;;;5.16;100.00
47530;BME280;33272;51.922;7.730;2023-12-07T11:38:04;143761.13;;;5.07;100.00
47530;BME280;33272;51.922;7.730;2023-12-07T11:40:36;143746.03;;;5.01;100.00
47530;BME280;33272;51.922;7.730;2023-12-07T11:43:03;143730.88;;;4.95;100.00
47530;BME280;33272;51.922;7.730;2023-12-07T11:45:42;143718.25;;;4.90;100.00
47530;BME280;33272;51.922;7.730;2023-12-07T11:48:15;143698.06;;;4.82;100.00
47530;BME280;33272;51.922;7.730;2023-12-07T11:50:57;143687.97;;;4.78;100.00
47530;BME280;33272;51.922;7.730;2023-12-07T11:53:26;143677.91;;;4.74;100.00
47530;BME280;33272;51.922;7.730;2023-12-07T11:55:57;143690.50;;;4.79;100.00
47530;BME280;33272;51.922;7.730;2023-12-07T11:58:25;143710.69;;;4.87;100.00
47530;BME280;33272;51.922;7.730;2023-12-07T12:00:53;143718.25;;;4.90;100.00
47530;BME280;33272;51.922;7.730;2023-12-07T12:03:22;143740.97;;;4.99;100.00
47530;BME280;33272;51.922;7.730;2023-12-07T12:05:49;143758.59;;;5.06;100.00
47530;BME280;33272;51.922;7.730;2023-12-07T12:08:16;143759.84;;;5.07;100.00
47530;BME280;33272;51.922;7.730;2023-12-07T12:10:44;143754.84;;;5.05;100.00
47530;BME280;33272;51.922;7.730;2023-12-07T12:13:13;143737.16;;;4.98;100.00
47530;BME280;33272;51.922;7.730;2023-12-07T12:15:40;143727.06;;;4.94;100.00
47530;BME280;33272;51.922;7.730;2023-12-07T12:18:08;143723.31;;;4.92;100.00
47530;BME280;33272;51.922;7.730;2023-12-07T12:20:36;143722.00;;;4.92;100.00
47530;BME280;33272;51.922;7.730;2023-12-07T12:23:03;143720.75;;;4.91;100.00
47530;BME280;33272;51.922;7.730;2023-12-07T12:25:31;143725.81;;;4.93;100.00
47530;BME280;33272;51.922;7.730;2023-12-07T12:28:02;143727.06;;;4.94;100.00
47530;BME280;33272;51.922;7.730;2023-12-07T12:30:31;143730.88;;;4.95;100.00
47530;BME280;33272;51.922;7.730;2023-12-07T12:32:59;143734.66;;;4.97;100.00
47530;BME280;33272;51.922;7.730;2023-12-07T12:35:26;143734.66;;;4.97;100.00
47530;BME280;33272;51.922;7.730;2023-12-07T12:37:53;143742.22;;;5.00;100.00
47530;BME280;33272;51.922;7.730;2023-12-07T12:40:22;143752.28;;;5.04;100.00
47530;BME280;33272;51.922;7.730;2023-12-07T12:42:52;143752.28;;;5.04;100.00
47530;BME280;33272;51.922;7.730;2023-12-07T12:45:19;143762.41;;;5.08;100.00
47530;BME280;33272;51.922;7.730;2023-12-07T12:47:48;143772.50;;;5.12;100.00
47530;BME280;33272;51.922;7.730;2023-12-07T12:50:34;143785.13;;;5.17;100.00
47530;BME280;33272;51.922;7.730;2023-12-07T12:53:03;143785.13;;;5.17;100.00
47530;BME280;33272;51.922;7.730;2023-12-07T12:55:33;143788.88;;;5.19;100.00
47530;BME280;33272;51.922;7.730;2023-12-07T12:58:00;143790.13;;;5.19;100.00